sensor_id;sensor_type;location;lat;lon;timestamp;pressure;altitude;pressure_sealevel;temperature;humidity
20228;BME280;12195;55.790;37.572;2023-07-31T00:01:17;98937.73;;;17.24;67.90
20228;BME280;12195;55.790;37.572;2023-07-31T00:04:00;98938.50;;;17.53;67.76
20228;BME280;12195;55.790;37.572;2023-07-31T00:06:33;98932.51;;;17.32;67.16
20228;BME280;12195;55.790;37.572;2023-07-31T00:09:17;98944.34;;;17.57;67.33
20228;BME280;12195;55.790;37.572;2023-07-31T00:11:50;98943.83;;;17.34;67.04
20228;BME280;12195;55.790;37.572;2023-07-31T00:14:33;98945.19;;;17.57;66.70
20228;BME280;12195;55.790;37.572;2023-07-31T00:17:06;98933.75;;;17.38;66.54
20228;BME280;12195;55.790;37.572;2023-07-31T00:19:51;98943.20;;;17.59;66.63
20228;BME280;12195;55.790;37.572;2023-07-31T00:22:34;98954.22;;;17.64;66.13
20228;BME280;12195;55.790;37.572;2023-07-31T00:25:17;98950.19;;;17.60;66.25
20228;BME280;12195;55.790;37.572;2023-07-31T00:27:50;98949.00;;;17.36;66.69
20228;BME280;12195;55.790;37.572;2023-07-31T00:30:33;98945.75;;;17.51;67.00
20228;BME280;12195;55.790;37.572;2023-07-31T00:33:05;98946.37;;;17.26;67.03
20228;BME280;12195;55.790;37.572;2023-07-31T00:35:50;98950.27;;;17.41;67.33
20228;BME280;12195;55.790;37.572;2023-07-31T00:38:23;98945.57;;;17.16;67.20
20228;BME280;12195;55.790;37.572;2023-07-31T00:41:06;98946.48;;;17.34;67.27
20228;BME280;12195;55.790;37.572;2023-07-31T00:43:39;98946.97;;;17.11;67.14
20228;BME280;12195;55.790;37.572;2023-07-31T00:46:25;98949.56;;;17.30;67.27
20228;BME280;12195;55.790;37.572;2023-07-31T00:48:59;98945.02;;;17.03;67.46
20228;BME280;12195;55.790;37.572;2023-07-31T00:51:42;98944.98;;;17.22;67.39
20228;BME280;12195;55.790;37.572;2023-07-31T00:54:25;98949.89;;;17.17;67.76
20228;BME280;12195;55.790;37.572;2023-07-31T00:56:58;98938.91;;;16.93;67.81
20228;BME280;12195;55.790;37.572;2023-07-31T00:59:42;98943.33;;;17.12;67.78
20228;BME280;12195;55.790;37.572;2023-07-31T01:02:14;98942.23;;;16.95;67.57
20228;BME280;12195;55.790;37.572;2023-07-31T01:04:59;98943.88;;;17.15;67.49
20228;BME280;12195;55.790;37.572;2023-07-31T01:07:53;98940.30;;;16.97;67.36
20228;BME280;12195;55.790;37.572;2023-07-31T01:10:29;98935.27;;;16.94;67.44
20228;BME280;12195;55.790;37.572;2023-07-31T01:13:03;98932.89;;;16.91;67.48
20228;BME280;12195;55.790;37.572;2023-07-31T01:15:46;98951.16;;;17.13;67.44
20228;BME280;12195;55.790;37.572;2023-07-31T01:18:28;98935.66;;;17.09;67.61
20228;BME280;12195;55.790;37.572;2023-07-31T01:21:21;98935.41;;;16.93;67.56
20228;BME280;12195;55.790;37.572;2023-07-31T01:27:14;98937.89;;;17.13;67.52
20228;BME280;12195;55.790;37.572;2023-07-31T01:29:53;98941.83;;;16.90;67.93
20228;BME280;12195;55.790;37.572;2023-07-31T01:32:34;98946.41;;;17.07;67.98
20228;BME280;12195;55.790;37.572;2023-07-31T01:35:07;98932.66;;;16.75;68.95
20228;BME280;12195;55.790;37.572;2023-07-31T01:37:53;98944.88;;;17.05;68.81
20228;BME280;12195;55.790;37.572;2023-07-31T01:40:36;98943.07;;;17.05;68.92
20228;BME280;12195;55.790;37.572;2023-07-31T01:43:18;98946.71;;;17.04;68.54
20228;BME280;12195;55.790;37.572;2023-07-31T01:45:52;98945.06;;;16.84;68.29
20228;BME280;12195;55.790;37.572;2023-07-31T01:48:37;98941.69;;;17.01;68.46
20228;BME280;12195;55.790;37.572;2023-07-31T01:51:09;98942.83;;;16.80;68.51
20228;BME280;12195;55.790;37.572;2023-07-31T01:53:52;98951.75;;;16.98;69.03
20228;BME280;12195;55.790;37.572;2023-07-31T01:56:38;98947.98;;;17.00;68.98
20228;BME280;12195;55.790;37.572;2023-07-31T01:59:11;98941.43;;;16.76;69.17
20228;BME280;12195;55.790;37.572;2023-07-31T02:01:54;98939.57;;;17.05;69.04
20228;BME280;12195;55.790;37.572;2023-07-31T02:04:40;98946.12;;;17.10;69.22
20228;BME280;12195;55.790;37.572;2023-07-31T02:07:24;98947.25;;;17.08;68.64
20228;BME280;12195;55.790;37.572;2023-07-31T02:09:57;98949.91;;;16.98;68.62
20228;BME280;12195;55.790;37.572;2023-07-31T02:12:42;98949.30;;;17.23;68.57
20228;BME280;12195;55.790;37.572;2023-07-31T02:15:15;98947.84;;;17.02;68.28
20228;BME280;12195;55.790;37.572;2023-07-31T02:17:57;98950.69;;;17.27;68.42
20228;BME280;12195;55.790;37.572;2023-07-31T02:20:40;98957.37;;;17.31;68.66
20228;BME280;12195;55.790;37.572;2023-07-31T02:23:13;98953.95;;;17.12;68.39
20228;BME280;12195;55.790;37.572;2023-07-31T02:25:57;98946.48;;;17.34;68.19
20228;BME280;12195;55.790;37.572;2023-07-31T02:28:30;98949.61;;;17.20;67.73
20228;BME280;12195;55.790;37.572;2023-07-31T02:31:15;98956.83;;;17.47;68.01
20228;BME280;12195;55.790;37.572;2023-07-31T02:33:49;98954.19;;;17.28;67.50
20228;BME280;12195;55.790;37.572;2023-07-31T02:36:34;98950.92;;;17.53;67.80
20228;BME280;12195;55.790;37.572;2023-07-31T02:39:18;98952.45;;;17.55;68.11
20228;BME280;12195;55.790;37.572;2023-07-31T02:41:51;98940.19;;;17.35;68.00
20228;BME280;12195;55.790;37.572;2023-07-31T02:44:35;98947.52;;;17.60;68.55
20228;BME280;12195;55.790;37.572;2023-07-31T02:47:08;98943.27;;;17.40;68.24
20228;BME280;12195;55.790;37.572;2023-07-31T02:49:51;98947.95;;;17.65;68.23
20228;BME280;12195;55.790;37.572;2023-07-31T02:52:23;98952.05;;;17.50;67.99
20228;BME280;12195;55.790;37.572;2023-07-31T02:55:06;98952.05;;;17.77;67.43
20228;BME280;12195;55.790;37.572;2023-07-31T02:57:39;98945.12;;;17.67;67.02
20228;BME280;12195;55.790;37.572;2023-07-31T03:00:21;98941.48;;;17.95;66.34
20228;BME280;12195;55.790;37.572;2023-07-31T03:02:55;98939.20;;;17.82;66.07
20228;BME280;12195;55.790;37.572;2023-07-31T03:05:40;98943.80;;;18.07;65.53
20228;BME280;12195;55.790;37.572;2023-07-31T03:08:12;98945.66;;;17.97;64.74
20228;BME280;12195;55.790;37.572;2023-07-31T03:10:57;98951.81;;;18.25;64.72
20228;BME280;12195;55.790;37.572;2023-07-31T03:13:30;98950.49;;;18.11;64.60
20228;BME280;12195;55.790;37.572;2023-07-31T03:16:12;98952.16;;;18.39;64.46
20228;BME280;12195;55.790;37.572;2023-07-31T03:18:45;98954.29;;;18.26;64.07
20228;BME280;12195;55.790;37.572;2023-07-31T03:21:30;98951.62;;;18.53;64.14
20228;BME280;12195;55.790;37.572;2023-07-31T03:24:03;98944.33;;;18.38;63.51
20228;BME280;12195;55.790;37.572;2023-07-31T03:26:45;98939.91;;;18.64;63.61
20228;BME280;12195;55.790;37.572;2023-07-31T03:29:18;98941.28;;;18.50;63.18
20228;BME280;12195;55.790;37.572;2023-07-31T03:32:04;98948.19;;;18.78;63.61
20228;BME280;12195;55.790;37.572;2023-07-31T03:34:37;98941.13;;;18.52;63.19
20228;BME280;12195;55.790;37.572;2023-07-31T03:37:20;98943.14;;;18.93;63.21
20228;BME280;12195;55.790;37.572;2023-07-31T03:39:54;98943.56;;;18.80;61.66
20228;BME280;12195;55.790;37.572;2023-07-31T03:42:39;98950.95;;;19.12;62.23
20228;BME280;12195;55.790;37.572;2023-07-31T03:45:13;98940.84;;;18.98;61.73
20228;BME280;12195;55.790;37.572;2023-07-31T03:47:57;98952.91;;;19.27;62.17
20228;BME280;12195;55.790;37.572;2023-07-31T03:50:31;98943.48;;;19.15;61.38
20228;BME280;12195;55.790;37.572;2023-07-31T03:53:17;98939.39;;;19.46;61.13
20228;BME280;12195;55.790;37.572;2023-07-31T03:56:02;98934.11;;;19.54;60.35
20228;BME280;12195;55.790;37.572;2023-07-31T03:58:37;98938.94;;;19.25;60.30
20228;BME280;12195;55.790;37.572;2023-07-31T04:01:21;98946.81;;;19.68;60.42
20228;BME280;12195;55.790;37.572;2023-07-31T04:04:06;98940.72;;;19.84;59.59
20228;BME280;12195;55.790;37.572;2023-07-31T04:06:39;98933.84;;;19.73;58.73
20228;BME280;12195;55.790;37.572;2023-07-31T04:09:24;98938.64;;;20.03;58.46
20228;BME280;12195;55.790;37.572;2023-07-31T04:11:57;98933.09;;;19.89;57.46
20228;BME280;12195;55.790;37.572;2023-07-31T04:14:41;98941.55;;;20.18;57.86
20228;BME280;12195;55.790;37.572;2023-07-31T04:17:18;98941.63;;;20.00;56.63
20228;BME280;12195;55.790;37.572;2023-07-31T04:20:01;98950.73;;;20.31;57.51
20228;BME280;12195;55.790;37.572;2023-07-31T04:22:34;98943.69;;;20.14;56.53
20228;BME280;12195;55.790;37.572;2023-07-31T04:25:19;98954.59;;;20.45;57.07
20228;BME280;12195;55.790;37.572;2023-07-31T04:27:52;98948.91;;;20.32;56.32
20228;BME280;12195;55.790;37.572;2023-07-31T04:30:37;98959.14;;;20.61;56.83
20228;BME280;12195;55.790;37.572;2023-07-31T04:33:10;98948.28;;;20.46;56.00
20228;BME280;12195;55.790;37.572;2023-07-31T04:35:55;98955.97;;;20.73;56.16
20228;BME280;12195;55.790;37.572;2023-07-31T04:38:38;98960.30;;;20.82;55.97
20228;BME280;12195;55.790;37.572;2023-07-31T04:41:12;98952.13;;;20.68;55.32
20228;BME280;12195;55.790;37.572;2023-07-31T04:43:56;98953.02;;;21.00;55.72
20228;BME280;12195;55.790;37.572;2023-07-31T04:46:29;98951.13;;;20.85;55.69
20228;BME280;12195;55.790;37.572;2023-07-31T04:49:15;98950.83;;;21.12;55.31
20228;BME280;12195;55.790;37.572;2023-07-31T04:51:59;98955.31;;;21.19;54.30
20228;BME280;12195;55.790;37.572;2023-07-31T04:54:32;98958.19;;;21.02;53.77
20228;BME280;12195;55.790;37.572;2023-07-31T04:57:16;98957.98;;;21.27;54.12
20228;BME280;12195;55.790;37.572;2023-07-31T04:59:49;98959.16;;;21.17;54.09
20228;BME280;12195;55.790;37.572;2023-07-31T05:02:32;98962.28;;;21.44;53.83
20228;BME280;12195;55.790;37.572;2023-07-31T05:05:06;98954.33;;;21.28;53.28
20228;BME280;12195;55.790;37.572;2023-07-31T05:07:49;98959.09;;;21.57;53.50
20228;BME280;12195;55.790;37.572;2023-07-31T05:10:23;98958.12;;;21.42;53.12
20228;BME280;12195;55.790;37.572;2023-07-31T05:13:06;98964.08;;;21.68;53.19
20228;BME280;12195;55.790;37.572;2023-07-31T05:15:41;98959.59;;;21.52;51.43
20228;BME280;12195;55.790;37.572;2023-07-31T05:18:26;98959.05;;;21.81;52.04
20228;BME280;12195;55.790;37.572;2023-07-31T05:21:10;98956.72;;;21.78;52.92
20228;BME280;12195;55.790;37.572;2023-07-31T05:23:45;98949.55;;;21.78;51.72
20228;BME280;12195;55.790;37.572;2023-07-31T05:26:31;98957.06;;;22.13;52.26
20228;BME280;12195;55.790;37.572;2023-07-31T05:29:05;98950.94;;;22.05;50.63
20228;BME280;12195;55.790;37.572;2023-07-31T05:31:49;98949.45;;;22.33;50.81
20228;BME280;12195;55.790;37.572;2023-07-31T05:34:22;98944.53;;;22.14;50.01
20228;BME280;12195;55.790;37.572;2023-07-31T05:37:07;98957.44;;;22.41;50.14
20228;BME280;12195;55.790;37.572;2023-07-31T05:39:40;98950.19;;;22.19;50.11
20228;BME280;12195;55.790;37.572;2023-07-31T05:42:25;98961.39;;;22.45;49.80
20228;BME280;12195;55.790;37.572;2023-07-31T05:45:00;98955.84;;;22.24;49.59
20228;BME280;12195;55.790;37.572;2023-07-31T05:47:45;98959.89;;;22.50;50.26
20228;BME280;12195;55.790;37.572;2023-07-31T05:50:19;98953.28;;;22.30;49.26
20228;BME280;12195;55.790;37.572;2023-07-31T05:53:04;98968.05;;;22.57;49.57
20228;BME280;12195;55.790;37.572;2023-07-31T05:55:38;98961.09;;;22.40;49.73
20228;BME280;12195;55.790;37.572;2023-07-31T05:58:22;98966.63;;;22.69;49.99
20228;BME280;12195;55.790;37.572;2023-07-31T06:00:55;98968.25;;;22.55;49.44
20228;BME280;12195;55.790;37.572;2023-07-31T06:03:41;98976.02;;;22.87;49.22
20228;BME280;12195;55.790;37.572;2023-07-31T06:06:14;98962.70;;;22.79;48.26
20228;BME280;12195;55.790;37.572;2023-07-31T06:08:58;98968.36;;;23.07;48.83
20228;BME280;12195;55.790;37.572;2023-07-31T06:11:31;98964.61;;;22.93;47.96
20228;BME280;12195;55.790;37.572;2023-07-31T06:14:15;98966.73;;;23.20;47.59
20228;BME280;12195;55.790;37.572;2023-07-31T06:16:49;98961.69;;;23.03;46.53
20228;BME280;12195;55.790;37.572;2023-07-31T06:19:33;98973.71;;;23.29;46.91
20228;BME280;12195;55.790;37.572;2023-07-31T06:22:18;98972.78;;;23.37;47.37
20228;BME280;12195;55.790;37.572;2023-07-31T06:24:51;98962.50;;;23.26;47.02
20228;BME280;12195;55.790;37.572;2023-07-31T06:27:36;98970.22;;;23.58;46.35
20228;BME280;12195;55.790;37.572;2023-07-31T06:30:10;98960.44;;;23.65;45.62
20228;BME280;12195;55.790;37.572;2023-07-31T06:32:54;98963.95;;;24.23;45.11
20228;BME280;12195;55.790;37.572;2023-07-31T06:35:27;98956.45;;;24.19;43.03
20228;BME280;12195;55.790;37.572;2023-07-31T06:38:12;98953.43;;;24.43;43.67
20228;BME280;12195;55.790;37.572;2023-07-31T06:40:45;98964.94;;;24.22;42.58
20228;BME280;12195;55.790;37.572;2023-07-31T06:43:29;98965.56;;;24.39;42.68
20228;BME280;12195;55.790;37.572;2023-07-31T06:46:06;98970.63;;;24.13;42.82
20228;BME280;12195;55.790;37.572;2023-07-31T06:48:50;98972.34;;;24.35;43.51
20228;BME280;12195;55.790;37.572;2023-07-31T06:51:23;98969.12;;;24.10;43.67
20228;BME280;12195;55.790;37.572;2023-07-31T06:54:28;98981.20;;;24.35;44.30
20228;BME280;12195;55.790;37.572;2023-07-31T06:57:02;98976.80;;;24.13;43.28
20228;BME280;12195;55.790;37.572;2023-07-31T06:59:45;98971.97;;;24.38;43.62
20228;BME280;12195;55.790;37.572;2023-07-31T07:02:19;98977.73;;;24.20;43.15
20228;BME280;12195;55.790;37.572;2023-07-31T07:05:02;98979.25;;;24.44;43.47
20228;BME280;12195;55.790;37.572;2023-07-31T07:07:49;98973.33;;;24.48;43.07
20228;BME280;12195;55.790;37.572;2023-07-31T07:10:24;98971.23;;;24.29;43.60
20228;BME280;12195;55.790;37.572;2023-07-31T07:13:10;98973.58;;;24.53;43.44
20228;BME280;12195;55.790;37.572;2023-07-31T07:18:30;98978.95;;;24.53;43.14
20228;BME280;12195;55.790;37.572;2023-07-31T07:21:04;98967.67;;;24.43;39.55
20228;BME280;12195;55.790;37.572;2023-07-31T07:23:47;98972.91;;;24.66;40.91
20228;BME280;12195;55.790;37.572;2023-07-31T07:26:21;98971.08;;;24.52;40.08
20228;BME280;12195;55.790;37.572;2023-07-31T07:29:06;98972.95;;;24.87;40.42
20228;BME280;12195;55.790;37.572;2023-07-31T07:31:43;98967.23;;;24.75;38.93
20228;BME280;12195;55.790;37.572;2023-07-31T07:34:27;98979.84;;;24.96;39.72
20228;BME280;12195;55.790;37.572;2023-07-31T07:37:01;98967.23;;;24.75;39.36
20228;BME280;12195;55.790;37.572;2023-07-31T07:39:47;98975.75;;;25.00;39.75
20228;BME280;12195;55.790;37.572;2023-07-31T07:42:31;98976.18;;;25.03;39.66
20228;BME280;12195;55.790;37.572;2023-07-31T07:45:05;98972.66;;;24.82;39.25
20228;BME280;12195;55.790;37.572;2023-07-31T07:47:51;98978.92;;;25.10;39.52
20228;BME280;12195;55.790;37.572;2023-07-31T07:50:34;98986.42;;;25.15;39.50
20228;BME280;12195;55.790;37.572;2023-07-31T07:53:07;98969.09;;;24.96;39.16
20228;BME280;12195;55.790;37.572;2023-07-31T07:55:50;98980.31;;;25.27;39.74
20228;BME280;12195;55.790;37.572;2023-07-31T07:58:35;98978.92;;;25.31;38.76
20228;BME280;12195;55.790;37.572;2023-07-31T08:01:08;98980.86;;;25.16;38.03
20228;BME280;12195;55.790;37.572;2023-07-31T08:03:53;98976.14;;;25.46;38.92
20228;BME280;12195;55.790;37.572;2023-07-31T08:06:39;98978.73;;;25.60;38.78
20228;BME280;12195;55.790;37.572;2023-07-31T08:09:23;98978.77;;;25.67;38.74
20228;BME280;12195;55.790;37.572;2023-07-31T08:11:56;98969.34;;;25.50;38.28
20228;BME280;12195;55.790;37.572;2023-07-31T08:14:43;98976.58;;;25.77;38.78
20228;BME280;12195;55.790;37.572;2023-07-31T08:17:26;98981.84;;;25.91;37.83
20228;BME280;12195;55.790;37.572;2023-07-31T08:19:59;98973.92;;;25.83;36.82
20228;BME280;12195;55.790;37.572;2023-07-31T08:22:43;98977.45;;;26.18;37.13
20228;BME280;12195;55.790;37.572;2023-07-31T08:25:17;98973.44;;;26.01;35.91
20228;BME280;12195;55.790;37.572;2023-07-31T08:28:02;98986.62;;;26.30;36.33
20228;BME280;12195;55.790;37.572;2023-07-31T08:30:35;98969.12;;;26.06;36.34
20228;BME280;12195;55.790;37.572;2023-07-31T08:33:20;98985.16;;;26.27;36.74
20228;BME280;12195;55.790;37.572;2023-07-31T08:35:53;98976.58;;;26.11;36.45
20228;BME280;12195;55.790;37.572;2023-07-31T08:38:37;98979.17;;;26.38;36.22
20228;BME280;12195;55.790;37.572;2023-07-31T08:41:11;98977.03;;;26.14;35.95
20228;BME280;12195;55.790;37.572;2023-07-31T08:43:52;98980.98;;;26.18;35.99
20228;BME280;12195;55.790;37.572;2023-07-31T08:46:37;98987.33;;;26.51;35.67
20228;BME280;12195;55.790;37.572;2023-07-31T08:49:11;98972.34;;;26.36;35.13
20228;BME280;12195;55.790;37.572;2023-07-31T08:51:56;98980.97;;;26.65;35.03
20228;BME280;12195;55.790;37.572;2023-07-31T08:54:41;98984.30;;;26.67;34.49
20228;BME280;12195;55.790;37.572;2023-07-31T08:57:15;98979.17;;;26.38;34.72
20228;BME280;12195;55.790;37.572;2023-07-31T09:00:00;98988.59;;;26.55;34.82
20228;BME280;12195;55.790;37.572;2023-07-31T09:02:48;98992.47;;;26.46;34.71
20228;BME280;12195;55.790;37.572;2023-07-31T09:05:32;98987.33;;;26.51;34.99
20228;BME280;12195;55.790;37.572;2023-07-31T09:08:06;98988.92;;;26.33;34.29
20228;BME280;12195;55.790;37.572;2023-07-31T09:10:51;98984.20;;;26.54;34.25
20228;BME280;12195;55.790;37.572;2023-07-31T09:13:24;98981.91;;;25.98;34.81
20228;BME280;12195;55.790;37.572;2023-07-31T09:16:10;98980.51;;;26.55;34.67
20228;BME280;12195;55.790;37.572;2023-07-31T09:18:56;98976.84;;;26.76;34.74
20228;BME280;12195;55.790;37.572;2023-07-31T09:21:47;98980.61;;;26.94;35.05
20228;BME280;12195;55.790;37.572;2023-07-31T09:24:31;98971.28;;;26.97;34.19
20228;BME280;12195;55.790;37.572;2023-07-31T09:27:14;98980.25;;;27.36;34.34
20228;BME280;12195;55.790;37.572;2023-07-31T09:30:01;98982.96;;;27.49;33.84
20228;BME280;12195;55.790;37.572;2023-07-31T09:32:34;98976.54;;;27.31;33.50
20228;BME280;12195;55.790;37.572;2023-07-31T09:35:21;98980.66;;;27.53;33.47
20228;BME280;12195;55.790;37.572;2023-07-31T09:37:57;98972.77;;;27.19;33.62
20228;BME280;12195;55.790;37.572;2023-07-31T09:43:28;98980.69;;;27.33;33.72
20228;BME280;12195;55.790;37.572;2023-07-31T09:46:01;98984.77;;;27.16;33.92
20228;BME280;12195;55.790;37.572;2023-07-31T09:48:45;98976.30;;;27.39;33.78
20228;BME280;12195;55.790;37.572;2023-07-31T09:51:31;98972.98;;;27.43;33.46
20228;BME280;12195;55.790;37.572;2023-07-31T09:54:35;98986.89;;;27.27;33.80
20228;BME280;12195;55.790;37.572;2023-07-31T09:57:09;98972.97;;;27.17;32.98
20228;BME280;12195;55.790;37.572;2023-07-31T09:59:54;98985.02;;;27.47;33.14
20228;BME280;12195;55.790;37.572;2023-07-31T10:02:29;98974.66;;;27.31;32.97
20228;BME280;12195;55.790;37.572;2023-07-31T10:05:15;98982.73;;;27.64;33.07
20228;BME280;12195;55.790;37.572;2023-07-31T10:07:59;98981.08;;;27.82;32.35
20228;BME280;12195;55.790;37.572;2023-07-31T10:10:45;98977.66;;;28.06;31.01
20228;BME280;12195;55.790;37.572;2023-07-31T10:13:19;98966.91;;;27.93;30.89
20228;BME280;12195;55.790;37.572;2023-07-31T10:16:04;98986.50;;;28.33;31.15
20228;BME280;12195;55.790;37.572;2023-07-31T10:18:37;98973.10;;;28.07;30.91
20228;BME280;12195;55.790;37.572;2023-07-31T10:21:22;98981.73;;;28.35;31.32
20228;BME280;12195;55.790;37.572;2023-07-31T10:23:56;98978.48;;;28.13;31.34
20228;BME280;12195;55.790;37.572;2023-07-31T10:26:40;98987.31;;;28.40;31.28
20228;BME280;12195;55.790;37.572;2023-07-31T10:29:26;98977.13;;;28.48;31.60
20228;BME280;12195;55.790;37.572;2023-07-31T10:32:11;98983.17;;;28.37;31.94
20228;BME280;12195;55.790;37.572;2023-07-31T10:34:45;98979.66;;;28.30;31.78
20228;BME280;12195;55.790;37.572;2023-07-31T10:37:44;98979.85;;;28.79;31.96
20228;BME280;12195;55.790;37.572;2023-07-31T10:40:26;98983.03;;;29.07;31.58
20228;BME280;12195;55.790;37.572;2023-07-31T10:43:23;98982.01;;;29.33;31.21
20228;BME280;12195;55.790;37.572;2023-07-31T10:45:58;98983.47;;;29.54;30.69
20228;BME280;12195;55.790;37.572;2023-07-31T10:48:33;98972.19;;;29.39;30.04
20228;BME280;12195;55.790;37.572;2023-07-31T10:51:21;98984.48;;;29.84;29.83
20228;BME280;12195;55.790;37.572;2023-07-31T10:53:54;98965.98;;;29.32;29.74
20228;BME280;12195;55.790;37.572;2023-07-31T10:56:45;98976.53;;;29.64;30.16
20228;BME280;12195;55.790;37.572;2023-07-31T10:59:20;98969.56;;;29.01;30.05
20228;BME280;12195;55.790;37.572;2023-07-31T11:02:06;98966.39;;;29.60;29.87
20228;BME280;12195;55.790;37.572;2023-07-31T11:05:09;98977.09;;;29.73;30.21
20228;BME280;12195;55.790;37.572;2023-07-31T11:07:52;98964.37;;;29.49;29.50
20228;BME280;12195;55.790;37.572;2023-07-31T11:10:31;98968.31;;;29.95;30.04
20228;BME280;12195;55.790;37.572;2023-07-31T11:13:07;98965.67;;;29.89;30.35
20228;BME280;12195;55.790;37.572;2023-07-31T11:15:52;98971.55;;;30.40;29.07
20228;BME280;12195;55.790;37.572;2023-07-31T11:18:40;98970.60;;;30.64;28.77
20228;BME280;12195;55.790;37.572;2023-07-31T11:21:24;98973.22;;;30.88;29.12
20228;BME280;12195;55.790;37.572;2023-07-31T11:23:58;98962.39;;;31.00;28.48
20228;BME280;12195;55.790;37.572;2023-07-31T11:26:54;98971.83;;;31.73;27.93
20228;BME280;12195;55.790;37.572;2023-07-31T11:29:40;98970.77;;;31.85;27.54
20228;BME280;12195;55.790;37.572;2023-07-31T11:32:23;98971.59;;;32.09;27.37
20228;BME280;12195;55.790;37.572;2023-07-31T11:34:56;98963.73;;;32.24;26.26
20228;BME280;12195;55.790;37.572;2023-07-31T11:37:42;98959.77;;;33.27;26.85
20228;BME280;12195;55.790;37.572;2023-07-31T11:40:16;98949.64;;;33.39;25.03
20228;BME280;12195;55.790;37.572;2023-07-31T11:43:04;98957.73;;;34.05;24.85
20228;BME280;12195;55.790;37.572;2023-07-31T11:45:39;98952.55;;;33.49;24.62
20228;BME280;12195;55.790;37.572;2023-07-31T11:48:27;98964.06;;;33.73;25.27
20228;BME280;12195;55.790;37.572;2023-07-31T11:51:03;98958.93;;;33.10;25.10
20228;BME280;12195;55.790;37.572;2023-07-31T11:53:58;98963.43;;;33.33;25.03
20228;BME280;12195;55.790;37.572;2023-07-31T11:56:32;98966.11;;;32.32;25.68
20228;BME280;12195;55.790;37.572;2023-07-31T11:59:38;98961.53;;;32.09;26.71
20228;BME280;12195;55.790;37.572;2023-07-31T12:02:23;98979.38;;;31.48;27.87
20228;BME280;12195;55.790;37.572;2023-07-31T12:04:56;98956.55;;;30.55;27.96
20228;BME280;12195;55.790;37.572;2023-07-31T12:07:45;98973.53;;;30.33;28.80
20228;BME280;12195;55.790;37.572;2023-07-31T12:10:30;98966.02;;;29.50;30.02
20228;BME280;12195;55.790;37.572;2023-07-31T12:13:23;98977.91;;;29.49;30.24
20228;BME280;12195;55.790;37.572;2023-07-31T12:16:02;98976.53;;;28.33;32.07
20228;BME280;12195;55.790;37.572;2023-07-31T12:18:49;98980.31;;;28.76;31.74
20228;BME280;12195;55.790;37.572;2023-07-31T12:21:22;98984.84;;;28.32;32.37
20228;BME280;12195;55.790;37.572;2023-07-31T12:24:05;98984.57;;;28.53;32.31
20228;BME280;12195;55.790;37.572;2023-07-31T12:26:49;98990.85;;;28.47;32.51
20228;BME280;12195;55.790;37.572;2023-07-31T12:29:35;98995.70;;;28.19;33.13
20228;BME280;12195;55.790;37.572;2023-07-31T12:32:20;98998.28;;;27.68;34.15
20228;BME280;12195;55.790;37.572;2023-07-31T12:35:07;99001.63;;;27.83;34.14
20228;BME280;12195;55.790;37.572;2023-07-31T12:37:40;98991.47;;;27.27;35.20
20228;BME280;12195;55.790;37.572;2023-07-31T12:40:25;98996.02;;;27.39;35.28
20228;BME280;12195;55.790;37.572;2023-07-31T12:43:03;98994.10;;;27.07;35.53
20228;BME280;12195;55.790;37.572;2023-07-31T12:45:48;99002.66;;;27.37;35.78
20228;BME280;12195;55.790;37.572;2023-07-31T12:48:21;98996.43;;;27.23;35.71
20228;BME280;12195;55.790;37.572;2023-07-31T12:51:07;99008.69;;;27.58;34.92
20228;BME280;12195;55.790;37.572;2023-07-31T12:53:40;98994.58;;;27.37;33.43
20228;BME280;12195;55.790;37.572;2023-07-31T12:56:23;99000.77;;;27.70;34.00
20228;BME280;12195;55.790;37.572;2023-07-31T12:58:56;98992.30;;;27.53;34.29
20228;BME280;12195;55.790;37.572;2023-07-31T13:01:41;99000.97;;;28.01;34.19
20228;BME280;12195;55.790;37.572;2023-07-31T13:04:14;98989.30;;;28.07;34.34
20228;BME280;12195;55.790;37.572;2023-07-31T13:06:59;98996.72;;;29.12;33.61
20228;BME280;12195;55.790;37.572;2023-07-31T13:09:32;98979.73;;;29.97;31.53
20228;BME280;12195;55.790;37.572;2023-07-31T13:12:15;98983.48;;;30.98;30.64
20228;BME280;12195;55.790;37.572;2023-07-31T13:14:59;98981.72;;;31.33;30.22
20228;BME280;12195;55.790;37.572;2023-07-31T13:17:46;98990.20;;;31.25;30.41
20228;BME280;12195;55.790;37.572;2023-07-31T13:20:53;98986.72;;;31.18;30.76
20228;BME280;12195;55.790;37.572;2023-07-31T13:23:36;98991.05;;;30.48;31.41
20228;BME280;12195;55.790;37.572;2023-07-31T13:26:09;98979.03;;;30.26;31.16
20228;BME280;12195;55.790;37.572;2023-07-31T13:28:55;98992.69;;;30.67;31.14
20228;BME280;12195;55.790;37.572;2023-07-31T13:31:28;98982.06;;;29.76;31.87
20228;BME280;12195;55.790;37.572;2023-07-31T13:34:15;98990.83;;;30.50;31.19
20228;BME280;12195;55.790;37.572;2023-07-31T13:36:48;98977.86;;;29.98;32.04
20228;BME280;12195;55.790;37.572;2023-07-31T13:39:33;98987.83;;;30.22;32.07
20228;BME280;12195;55.790;37.572;2023-07-31T13:42:18;98989.68;;;29.85;32.45
20228;BME280;12195;55.790;37.572;2023-07-31T13:44:51;98989.28;;;29.08;33.42
20228;BME280;12195;55.790;37.572;2023-07-31T13:47:36;98997.13;;;29.16;34.49
20228;BME280;12195;55.790;37.572;2023-07-31T13:50:10;99005.64;;;28.25;36.34
20228;BME280;12195;55.790;37.572;2023-07-31T13:52:54;99008.59;;;28.23;36.53
20228;BME280;12195;55.790;37.572;2023-07-31T13:55:28;99004.52;;;27.36;38.21
20228;BME280;12195;55.790;37.572;2023-07-31T13:58:15;99008.26;;;27.42;37.84
20228;BME280;12195;55.790;37.572;2023-07-31T14:01:03;99010.72;;;27.17;38.57
20228;BME280;12195;55.790;37.572;2023-07-31T14:03:37;98993.83;;;26.63;39.44
20228;BME280;12195;55.790;37.572;2023-07-31T14:06:20;99007.35;;;26.89;38.44
20228;BME280;12195;55.790;37.572;2023-07-31T14:08:52;99010.87;;;26.36;40.38